Rechercher aéroport 
image banner adimage banner ad
image banner ad

LIEO - Olbia/Costa Smeralda

Situé à Olbia, Italy

ICAO - LIEO, IATA - OLB

Données fournies par Airmate  

Information générale

Coordonnées: N40°53'55" E9°31'4"
Élévation : 37 feet MSL.
 
Voir autres Aéroports à Sardinia

Données opérationnelles

Accessible au public
Heure actuelle UTC:
Heure actuelle locale:
Météo
METAR: LIEO 261050Z 25024G36KT 9999 R05/P1500N R23/1100N FEW030 19/08 Q1005
TAF: TAF LIEO 260500Z 2606/2706 26025G35KT 9999 SCT030 TEMPO 2700/2706 TSRA
Voir NOTAMs / SUP AIP / TFR affectant cet aéroport [VIEW]
Fréquences de communication: [VIEW]

Pistes:

Identifiant RWYQFULongueur (ft)Largeur (ft)SurfaceLDA (ft)
058021147ASPH
238021147ASPH

Coordonnées de l'aéroport

Adresse: Olbia Italy

Autres services d'aviation

Écoles de pilotage

Meridiana Fly S.P.A.

Meridiana Fly S.P.A.
078952682
078952682

Clubs d'aviation (sans but lucratif)

Aero Club Olbia

Aero Club Olbia

Vue satellite de LIEO